METAR Data
IDs: Format: Raw Decoded Include TAF

Data at: 2133 UTC 01 Dec 2021

CYKA 012100Z VRB02KT 40SM SCT070 OVC230 11/04 A2983 RMK AC4CI4 SLP111